Time;durP1;ratioP1;P1;durP2;ratioP2;P2;SDS_P1;SDS_P2;PMS_P1;PMS_P2;Temp;Humidity;BMP_temperature;BMP_pressure;BME280_temperature;BME280_humidity;BME280_pressure;Samples;Min_cycle;Max_cycle;Signal;HPM_P1;HPM_P2
2023/05/07 00:00:21;;;;;;;0.10;0.10;;;13.90;99.90;;;;;;5085611;28;20551;-73
2023/05/07 00:02:47;;;;;;;0.00;0.00;;;12.20;99.90;;;;;;5084913;28;20055;-73
2023/05/07 00:05:13;;;;;;;0.05;0.05;;;12.00;99.90;;;;;;5085088;28;20124;-72
2023/05/07 00:07:39;;;;;;;0.08;0.08;;;12.00;99.90;;;;;;5083619;28;20062;-76
2023/05/07 00:10:06;;;;;;;0.00;0.00;;;11.90;99.90;;;;;;5082520;28;20024;-72
2023/05/07 00:12:35;;;;;;;0.10;0.10;;;11.90;99.90;;;;;;5087634;28;20020;-73
2023/05/07 00:15:03;;;;;;;0.05;0.05;;;11.80;99.90;;;;;;5080872;28;20506;-72
2023/05/07 00:17:30;;;;;;;0.00;0.00;;;11.80;99.90;;;;;;5081036;28;20035;-72
2023/05/07 00:19:55;;;;;;;0.57;0.57;;;11.70;99.90;;;;;;5083476;28;20027;-72
2023/05/07 00:22:21;;;;;;;0.10;0.10;;;11.60;99.90;;;;;;5081594;28;20119;-72
2023/05/07 00:24:47;;;;;;;0.10;0.10;;;11.60;99.90;;;;;;5081084;28;20032;-72
2023/05/07 00:27:13;;;;;;;0.75;0.75;;;11.60;99.90;;;;;;5079808;28;20360;-73
2023/05/07 00:29:39;;;;;;;0.15;0.15;;;11.60;99.90;;;;;;5083201;28;20173;-73
2023/05/07 00:32:05;;;;;;;0.00;0.00;;;11.50;99.90;;;;;;5079766;28;20111;-73
2023/05/07 00:34:31;;;;;;;0.20;0.20;;;11.50;99.90;;;;;;5078494;28;20103;-72
2023/05/07 00:36:56;;;;;;;0.00;0.00;;;11.50;99.90;;;;;;5081863;28;20311;-73
2023/05/07 00:39:22;;;;;;;0.00;0.00;;;11.50;99.90;;;;;;5079259;28;20016;-73
2023/05/07 00:41:48;;;;;;;0.10;0.10;;;11.40;99.90;;;;;;5080563;28;20052;-72
2023/05/07 00:44:14;;;;;;;0.10;0.10;;;11.40;99.90;;;;;;5082227;28;20047;-72
2023/05/07 00:46:40;;;;;;;0.10;0.10;;;10.60;99.90;;;;;;5079383;28;20461;-73
2023/05/07 00:49:07;;;;;;;0.05;0.05;;;11.30;99.90;;;;;;5078525;28;20084;-73
2023/05/07 00:51:33;;;;;;;0.10;0.10;;;11.70;99.90;;;;;;5081184;28;20387;-73
2023/05/07 00:54:02;;;;;;;0.10;0.10;;;11.90;99.90;;;;;;5083224;28;20071;-73
2023/05/07 00:56:28;;;;;;;0.00;0.00;;;11.40;99.90;;;;;;5083822;28;20067;-72
2023/05/07 00:58:56;;;;;;;0.00;0.00;;;11.30;99.90;;;;;;5087924;28;20032;-73
2023/05/07 01:01:22;;;;;;;0.05;0.05;;;11.30;99.90;;;;;;5083091;28;20118;-73
2023/05/07 01:03:48;;;;;;;0.00;0.00;;;11.30;99.90;;;;;;5083862;28;20039;-73
2023/05/07 01:06:16;;;;;;;0.00;0.00;;;;;;;;;;5082082;28;20023;-72
2023/05/07 01:08:42;;;;;;;0.00;0.00;;;11.30;99.90;;;;;;5083723;28;20020;-73
2023/05/07 01:11:10;;;;;;;0.00;0.00;;;11.30;99.90;;;;;;5083814;28;20675;-72
2023/05/07 01:13:38;;;;;;;0.00;0.00;;;11.50;99.90;;;;;;5086440;28;20028;-73
2023/05/07 01:16:05;;;;;;;0.10;0.10;;;11.20;99.90;;;;;;5091443;28;20012;-73
2023/05/07 01:18:30;;;;;;;0.00;0.00;;;11.40;99.90;;;;;;5090360;28;20044;-72
2023/05/07 01:20:59;;;;;;;0.03;0.03;;;10.50;99.90;;;;;;5092154;28;20670;-73
2023/05/07 01:23:27;;;;;;;0.05;0.05;;;7.50;99.90;;;;;;5091047;28;20126;-72
2023/05/07 01:25:54;;;;;;;0.00;0.00;;;11.10;99.90;;;;;;5092014;28;20052;-75
2023/05/07 01:28:20;;;;;;;0.10;0.10;;;11.30;99.90;;;;;;5093646;28;20055;-77
2023/05/07 01:30:56;;;;;;;0.10;0.10;;;11.10;99.90;;;;;;5104651;28;20028;-73
2023/05/07 01:33:22;;;;;;;0.00;0.00;;;11.00;99.90;;;;;;5101591;28;20024;-72
2023/05/07 01:35:52;;;;;;;0.00;0.00;;;11.10;99.90;;;;;;5099550;28;20036;-73
2023/05/07 01:38:20;;;;;;;0.10;0.10;;;11.00;99.90;;;;;;5100743;28;20664;-72
2023/05/07 01:40:46;;;;;;;0.00;0.00;;;11.10;99.90;;;;;;5101458;28;20043;-72
2023/05/07 01:43:12;;;;;;;0.10;0.10;;;11.00;99.90;;;;;;5101208;28;20201;-72
2023/05/07 01:45:38;;;;;;;0.10;0.10;;;11.00;99.90;;;;;;5098501;28;20121;-72
2023/05/07 01:48:05;;;;;;;0.00;0.00;;;11.00;99.90;;;;;;5099912;28;20047;-72
2023/05/07 01:50:33;;;;;;;0.05;0.05;;;10.90;99.90;;;;;;5101201;28;20024;-72
2023/05/07 01:52:59;;;;;;;0.00;0.00;;;10.90;99.90;;;;;;5090627;28;20035;-72
2023/05/07 01:55:25;;;;;;;0.00;0.00;;;11.00;99.90;;;;;;5098144;28;20068;-72
2023/05/07 01:57:52;;;;;;;0.00;0.00;;;10.80;99.90;;;;;;5098060;28;20048;-72
2023/05/07 02:00:18;;;;;;;0.00;0.00;;;10.90;99.90;;;;;;5089424;28;20024;-72
2023/05/07 02:02:44;;;;;;;0.00;0.00;;;10.80;99.90;;;;;;5092859;28;20028;-72
2023/05/07 02:05:10;;;;;;;0.00;0.00;;;11.20;99.90;;;;;;5083078;28;20020;-72
2023/05/07 02:07:36;;;;;;;0.00;0.00;;;10.70;99.90;;;;;;5082789;28;20055;-72
2023/05/07 02:10:02;;;;;;;0.00;0.00;;;9.30;99.90;;;;;;5084962;28;20399;-72
2023/05/07 02:12:28;;;;;;;0.00;0.00;;;10.60;99.90;;;;;;5083423;28;20304;-72
2023/05/07 02:14:54;;;;;;;0.05;0.05;;;10.60;99.90;;;;;;5087066;28;20031;-72
2023/05/07 02:17:20;;;;;;;0.10;0.10;;;10.60;99.90;;;;;;5083906;28;20035;-72
2023/05/07 02:19:46;;;;;;;0.00;0.00;;;10.60;99.90;;;;;;5088401;28;20451;-72
2023/05/07 02:22:12;;;;;;;0.10;0.10;;;10.60;99.90;;;;;;5084706;28;20078;-72
2023/05/07 02:24:38;;;;;;;0.03;0.03;;;;;;;;;;5085769;28;20024;-72
2023/05/07 02:27:04;;;;;;;0.10;0.10;;;10.50;99.90;;;;;;5081870;28;20029;-72
2023/05/07 02:29:30;;;;;;;0.10;0.10;;;10.40;99.90;;;;;;5081757;28;20501;-72
2023/05/07 02:31:56;;;;;;;0.10;0.10;;;10.70;99.90;;;;;;5081990;28;20035;-76
2023/05/07 02:34:22;;;;;;;0.00;0.00;;;10.50;99.90;;;;;;5082335;28;20020;-74
2023/05/07 02:36:48;;;;;;;0.10;0.10;;;10.40;99.90;;;;;;5084003;28;20027;-75
2023/05/07 02:39:13;;;;;;;0.00;0.00;;;10.60;99.90;;;;;;5081874;28;20081;-74
2023/05/07 02:41:40;;;;;;;0.03;0.03;;;;;;;;;;5081166;28;20054;-73
2023/05/07 02:44:06;;;;;;;0.00;0.00;;;10.30;99.90;;;;;;5080213;28;20071;-75
2023/05/07 02:46:32;;;;;;;0.10;0.10;;;;;;;;;;5082036;28;20494;-74
2023/05/07 02:48:57;;;;;;;0.05;0.05;;;9.60;99.90;;;;;;5082808;28;20012;-74
2023/05/07 02:51:24;;;;;;;0.00;0.00;;;;;;;;;;5087919;28;20197;-74
2023/05/07 02:53:49;;;;;;;0.00;0.00;;;10.10;99.90;;;;;;5081936;28;20048;-74
2023/05/07 02:56:15;;;;;;;0.00;0.00;;;8.90;99.90;;;;;;5083548;28;20031;-74
2023/05/07 02:58:44;;;;;;;0.00;0.00;;;10.00;99.90;;;;;;5081522;28;20289;-73
2023/05/07 03:01:10;;;;;;;0.00;0.00;;;10.30;99.90;;;;;;5081790;28;20215;-74
2023/05/07 03:03:36;;;;;;;0.05;0.05;;;9.70;99.90;;;;;;5085033;28;20024;-74
2023/05/07 03:06:02;;;;;;;0.05;0.05;;;10.00;99.90;;;;;;5079120;28;20023;-75
2023/05/07 03:08:28;;;;;;;0.00;0.00;;;10.30;99.90;;;;;;5082235;28;20127;-74
2023/05/07 03:10:54;;;;;;;0.00;0.00;;;10.00;99.90;;;;;;5086460;28;20530;-74
2023/05/07 03:13:19;;;;;;;0.00;0.00;;;10.00;99.90;;;;;;5083109;28;20655;-74
2023/05/07 03:15:45;;;;;;;0.05;0.05;;;;;;;;;;5086293;28;20024;-75
2023/05/07 03:18:11;;;;;;;0.10;0.10;;;11.60;99.90;;;;;;5085835;28;20027;-73
2023/05/07 03:20:37;;;;;;;0.00;0.00;;;9.90;99.90;;;;;;5084993;28;20036;-73
2023/05/07 03:23:03;;;;;;;0.00;0.00;;;9.90;99.90;;;;;;5082132;28;20031;-74
2023/05/07 03:25:32;;;;;;;0.00;0.00;;;9.80;99.90;;;;;;5080150;28;20020;-74
2023/05/07 03:27:58;;;;;;;0.10;0.10;;;;;;;;;;5084091;28;20451;-73
2023/05/07 03:30:24;;;;;;;0.00;0.00;;;9.80;99.90;;;;;;5080640;28;20055;-74
2023/05/07 03:32:50;;;;;;;0.00;0.00;;;9.70;99.90;;;;;;5082905;28;20116;-73
2023/05/07 03:35:16;;;;;;;0.00;0.00;;;9.70;99.90;;;;;;5081756;28;20513;-73
2023/05/07 03:37:42;;;;;;;0.00;0.00;;;9.70;99.90;;;;;;5081972;28;20499;-73
2023/05/07 03:40:10;;;;;;;0.00;0.00;;;9.70;99.90;;;;;;5082793;28;20024;-74
2023/05/07 03:42:36;;;;;;;0.08;0.08;;;;;;;;;;5079729;28;20248;-74
2023/05/07 03:45:02;;;;;;;0.00;0.00;;;9.60;99.90;;;;;;5080068;28;20044;-73
2023/05/07 03:47:28;;;;;;;0.10;0.10;;;;;;;;;;5089203;28;20703;-75
2023/05/07 03:49:54;;;;;;;2.55;2.45;;;9.70;99.90;;;;;;5083940;28;20043;-74
2023/05/07 03:52:25;;;;;;;0.10;0.10;;;;;;;;;;5088506;28;20241;-74
2023/05/07 03:54:52;;;;;;;0.00;0.00;;;9.80;99.90;;;;;;5081664;28;20075;-74
2023/05/07 03:57:18;;;;;;;0.10;0.10;;;11.60;99.90;;;;;;5081939;28;20361;-73
2023/05/07 03:59:43;;;;;;;0.00;0.00;;;10.10;99.90;;;;;;5082372;28;20028;-73
2023/05/07 04:02:10;;;;;;;0.00;0.00;;;;;;;;;;5085157;28;20030;-74
2023/05/07 04:04:35;;;;;;;0.00;0.00;;;9.80;99.90;;;;;;5082753;28;20579;-74
2023/05/07 04:07:02;;;;;;;0.00;0.00;;;;;;;;;;5083295;28;20025;-73
2023/05/07 04:09:28;;;;;;;0.08;0.08;;;9.90;99.90;;;;;;5081878;28;20407;-73
2023/05/07 04:11:54;;;;;;;0.00;0.00;;;10.10;99.90;;;;;;5083008;28;20039;-73
2023/05/07 04:14:20;;;;;;;0.00;0.00;;;9.70;99.90;;;;;;5083304;28;20153;-73
2023/05/07 04:16:45;;;;;;;0.00;0.00;;;9.80;99.90;;;;;;5083061;28;20304;-73
2023/05/07 04:19:11;;;;;;;0.03;0.03;;;;;;;;;;5084355;28;20404;-73
2023/05/07 04:21:37;;;;;;;0.00;0.00;;;9.80;99.90;;;;;;5082703;28;20039;-73
2023/05/07 04:24:03;;;;;;;0.00;0.00;;;9.80;99.90;;;;;;5080482;28;20031;-74
2023/05/07 04:26:30;;;;;;;0.00;0.00;;;;;;;;;;5090357;28;20024;-73
2023/05/07 04:28:56;;;;;;;0.10;0.10;;;9.80;99.90;;;;;;5085994;28;20065;-73
2023/05/07 04:31:22;;;;;;;0.10;0.10;;;11.60;99.90;;;;;;5098921;28;20020;-73
2023/05/07 04:33:48;;;;;;;0.55;0.55;;;;;;;;;;5104031;28;20027;-74
2023/05/07 04:36:14;;;;;;;0.00;0.00;;;9.90;99.90;;;;;;5106737;28;20319;-74
2023/05/07 04:38:39;;;;;;;0.00;0.00;;;9.90;99.90;;;;;;5107981;28;20041;-74
2023/05/07 04:41:06;;;;;;;0.10;0.10;;;10.00;99.90;;;;;;5108397;28;20024;-74
2023/05/07 04:43:32;;;;;;;0.00;0.00;;;10.10;99.90;;;;;;5109790;28;20020;-74
2023/05/07 04:45:58;;;;;;;0.00;0.00;;;10.10;99.90;;;;;;5099843;28;20027;-73
2023/05/07 04:48:24;;;;;;;0.10;0.10;;;10.20;99.90;;;;;;5107089;28;20038;-74
2023/05/07 04:50:51;;;;;;;0.10;0.10;;;10.20;99.90;;;;;;5111221;28;20044;-77
2023/05/07 04:53:17;;;;;;;0.10;0.10;;;10.30;99.90;;;;;;5107829;28;20032;-74
2023/05/07 04:55:43;;;;;;;0.00;0.00;;;10.40;99.90;;;;;;5107603;28;20028;-74
2023/05/07 04:58:09;;;;;;;0.90;0.90;;;10.50;99.90;;;;;;5105171;28;20282;-73
2023/05/07 05:00:35;;;;;;;1.55;1.48;;;10.50;99.90;;;;;;5100152;28;20024;-73
2023/05/07 05:03:01;;;;;;;0.10;0.10;;;10.60;99.90;;;;;;5103097;28;20057;-73
2023/05/07 05:05:27;;;;;;;0.03;0.03;;;10.60;99.90;;;;;;5094019;28;20234;-73
2023/05/07 05:07:53;;;;;;;0.10;0.10;;;10.80;99.90;;;;;;5089418;28;20405;-75
2023/05/07 05:10:18;;;;;;;0.10;0.10;;;10.80;99.90;;;;;;5089567;28;20578;-74
2023/05/07 05:12:44;;;;;;;0.03;0.03;;;11.30;99.90;;;;;;5096413;28;20111;-73
2023/05/07 05:15:12;;;;;;;0.03;0.03;;;11.00;99.90;;;;;;5089072;28;20020;-73
2023/05/07 05:17:38;;;;;;;0.00;0.00;;;11.30;99.90;;;;;;5085913;28;20085;-74
2023/05/07 05:20:05;;;;;;;0.00;0.00;;;11.20;99.90;;;;;;5083797;28;20035;-74
2023/05/07 05:22:33;;;;;;;0.10;0.10;;;11.60;99.90;;;;;;5085936;28;20032;-73
2023/05/07 05:24:59;;;;;;;0.10;0.10;;;14.40;99.90;;;;;;5086957;28;20287;-79
2023/05/07 05:27:24;;;;;;;0.10;0.10;;;11.50;99.90;;;;;;5086994;28;20016;-73
2023/05/07 05:29:50;;;;;;;0.10;0.10;;;11.80;99.90;;;;;;5088564;28;20016;-73
2023/05/07 05:32:16;;;;;;;0.35;0.35;;;;;;;;;;5084295;28;20024;-74
2023/05/07 05:34:42;;;;;;;0.00;0.00;;;11.80;99.90;;;;;;5089030;28;20224;-74
2023/05/07 05:37:08;;;;;;;0.10;0.10;;;12.10;99.90;;;;;;5083522;28;20479;-74
2023/05/07 05:39:34;;;;;;;0.10;0.10;;;12.70;99.90;;;;;;5093981;28;20020;-80
2023/05/07 05:41:59;;;;;;;0.15;0.15;;;12.20;99.90;;;;;;5089438;28;20526;-74
2023/05/07 05:44:25;;;;;;;0.10;0.10;;;12.30;99.90;;;;;;5085846;28;20082;-73
2023/05/07 05:46:51;;;;;;;0.57;0.57;;;12.30;99.90;;;;;;5085439;28;20026;-74
2023/05/07 05:49:17;;;;;;;0.10;0.10;;;12.60;99.90;;;;;;5083485;28;20042;-73
2023/05/07 05:51:43;;;;;;;0.10;0.10;;;;;;;;;;5080821;28;20638;-77
2023/05/07 05:54:09;;;;;;;0.20;0.20;;;12.60;99.90;;;;;;5080469;28;20043;-75
2023/05/07 05:56:37;;;;;;;0.10;0.10;;;12.80;99.90;;;;;;5080401;28;20047;-73
2023/05/07 05:59:02;;;;;;;0.10;0.10;;;14.50;99.90;;;;;;5080812;28;20591;-73
2023/05/07 06:01:28;;;;;;;0.10;0.10;;;13.40;99.90;;;;;;5081160;28;20325;-82
2023/05/07 06:03:54;;;;;;;0.40;0.40;;;13.20;99.90;;;;;;5081749;28;20055;-76
2023/05/07 06:06:20;;;;;;;0.20;0.20;;;14.90;99.90;;;;;;5081052;28;20666;-80
2023/05/07 06:08:45;;;;;;;0.28;0.28;;;13.50;99.90;;;;;;5081918;28;20362;-77
2023/05/07 06:11:11;;;;;;;0.10;0.10;;;13.60;99.90;;;;;;5078706;28;20063;-75
2023/05/07 06:13:37;;;;;;;0.10;0.10;;;13.70;99.90;;;;;;5080282;28;20483;-74
2023/05/07 06:16:03;;;;;;;2.50;2.30;;;13.90;99.90;;;;;;5081617;28;20483;-77
2023/05/07 06:18:28;;;;;;;0.17;0.17;;;14.00;99.90;;;;;;5081215;28;20031;-74
2023/05/07 06:20:54;;;;;;;0.20;0.20;;;14.20;99.90;;;;;;5080232;28;20043;-74
2023/05/07 06:23:20;;;;;;;0.10;0.10;;;14.30;99.90;;;;;;5080684;28;20089;-79
2023/05/07 06:25:52;;;;;;;0.30;0.30;;;14.40;99.90;;;;;;5079977;28;20379;-73
2023/05/07 06:28:17;;;;;;;0.20;0.20;;;14.60;99.90;;;;;;5079380;28;20697;-84
2023/05/07 06:30:43;;;;;;;0.82;0.77;;;14.70;99.90;;;;;;5078176;28;20211;-74
2023/05/07 06:33:09;;;;;;;0.20;0.20;;;14.80;99.90;;;;;;5078821;28;20540;-73
2023/05/07 06:35:35;;;;;;;0.70;0.70;;;14.90;99.90;;;;;;5078773;28;20533;-74
2023/05/07 06:38:01;;;;;;;0.20;0.20;;;16.90;99.90;;;;;;5078378;28;20024;-76
2023/05/07 06:40:27;;;;;;;0.10;0.10;;;15.20;99.90;;;;;;5078234;28;20035;-71
2023/05/07 06:42:53;;;;;;;0.20;0.20;;;15.30;99.90;;;;;;5078298;28;20028;-74
2023/05/07 06:45:19;;;;;;;0.20;0.20;;;15.30;99.90;;;;;;5077284;28;20018;-76
2023/05/07 06:47:45;;;;;;;0.20;0.20;;;15.40;99.90;;;;;;5078640;28;20270;-73
2023/05/07 06:50:11;;;;;;;0.17;0.17;;;15.50;99.90;;;;;;5078327;28;20024;-76
2023/05/07 06:52:37;;;;;;;0.17;0.17;;;15.70;99.90;;;;;;5078658;28;20024;-79
2023/05/07 06:55:03;;;;;;;0.10;0.10;;;15.80;99.90;;;;;;5078194;28;20350;-74
2023/05/07 06:57:29;;;;;;;0.10;0.10;;;15.90;99.90;;;;;;5078479;28;20219;-73
2023/05/07 06:59:55;;;;;;;0.20;0.20;;;16.00;99.90;;;;;;5078367;28;20220;-74
2023/05/07 07:02:20;;;;;;;0.10;0.10;;;16.20;99.90;;;;;;5078505;28;20020;-73
2023/05/07 07:04:46;;;;;;;0.10;0.10;;;15.90;99.90;;;;;;5078315;28;20407;-77
2023/05/07 07:07:12;;;;;;;0.10;0.10;;;;;;;;;;5078712;28;20089;-75
2023/05/07 07:09:38;;;;;;;0.17;0.17;;;16.60;99.90;;;;;;5078066;28;20215;-74
2023/05/07 07:12:04;;;;;;;0.10;0.10;;;16.70;99.90;;;;;;5078547;28;20103;-76
2023/05/07 07:14:32;;;;;;;0.10;0.10;;;16.90;99.90;;;;;;5078207;28;20111;-85
2023/05/07 07:16:58;;;;;;;0.20;0.20;;;17.20;99.90;;;;;;5078295;28;20020;-77
2023/05/07 07:19:25;;;;;;;0.10;0.10;;;17.20;99.90;;;;;;5078511;28;20682;-74
2023/05/07 07:21:51;;;;;;;0.13;0.13;;;17.30;99.90;;;;;;5078312;28;20040;-75
2023/05/07 07:24:20;;;;;;;0.10;0.10;;;17.30;99.90;;;;;;5079848;28;20384;-75
2023/05/07 07:26:46;;;;;;;1.67;1.58;;;17.60;99.90;;;;;;5078200;28;20097;-75
2023/05/07 07:29:12;;;;;;;1.33;1.33;;;17.60;99.90;;;;;;5076223;28;20514;-74
2023/05/07 07:31:38;;;;;;;0.85;0.85;;;17.80;99.90;;;;;;5078122;28;20089;-74
2023/05/07 07:34:04;;;;;;;0.10;0.10;;;17.90;99.90;;;;;;5077396;28;20063;-73
2023/05/07 07:36:30;;;;;;;0.65;0.65;;;18.00;99.90;;;;;;5078517;28;20020;-74
2023/05/07 07:38:56;;;;;;;0.20;0.20;;;18.00;99.90;;;;;;5078390;28;20023;-74
2023/05/07 07:41:22;;;;;;;0.60;0.60;;;18.10;99.90;;;;;;5077973;28;20285;-77
2023/05/07 07:43:48;;;;;;;0.10;0.10;;;18.10;99.90;;;;;;5077797;28;20494;-73
2023/05/07 07:46:14;;;;;;;0.10;0.10;;;18.20;99.90;;;;;;5078791;28;20027;-81
2023/05/07 07:48:39;;;;;;;0.10;0.10;;;18.30;99.90;;;;;;5079692;28;20012;-75
2023/05/07 07:51:05;;;;;;;0.10;0.10;;;18.60;99.90;;;;;;5078360;28;20115;-78
2023/05/07 07:53:31;;;;;;;0.13;0.13;;;18.80;99.90;;;;;;5079341;28;20123;-82
2023/05/07 07:55:57;;;;;;;0.10;0.10;;;18.80;99.90;;;;;;5077627;28;20036;-82
2023/05/07 07:58:24;;;;;;;0.10;0.10;;;19.10;99.90;;;;;;5079712;28;20016;-80
2023/05/07 08:00:50;;;;;;;0.20;0.20;;;19.10;99.90;;;;;;5077288;28;20017;-73
2023/05/07 08:03:16;;;;;;;0.20;0.20;;;19.20;99.90;;;;;;5076493;28;20024;-76
2023/05/07 08:05:43;;;;;;;0.20;0.20;;;19.40;99.90;;;;;;5077646;28;20023;-74
2023/05/07 08:08:09;;;;;;;0.47;0.47;;;19.60;99.90;;;;;;5077868;28;20028;-74
2023/05/07 08:10:37;;;;;;;0.10;0.10;;;20.70;99.90;;;;;;5078216;28;20020;-73
2023/05/07 08:13:04;;;;;;;0.43;0.43;;;19.90;99.40;;;;;;5078242;28;20238;-75
2023/05/07 08:15:30;;;;;;;0.10;0.10;;;20.10;99.10;;;;;;5078200;28;20567;-73
2023/05/07 08:17:57;;;;;;;1.23;1.10;;;20.40;99.50;;;;;;5078648;28;20688;-76
2023/05/07 08:20:23;;;;;;;0.10;0.10;;;20.60;97.60;;;;;;5079029;28;20024;-75
2023/05/07 08:22:49;;;;;;;0.10;0.10;;;20.50;97.80;;;;;;5078235;28;20099;-74
2023/05/07 08:25:15;;;;;;;0.30;0.30;;;20.60;97.60;;;;;;5078767;28;20112;-74
2023/05/07 08:27:40;;;;;;;0.57;0.57;;;20.70;96.30;;;;;;5077062;28;20097;-74
2023/05/07 08:30:07;;;;;;;0.40;0.40;;;20.90;95.90;;;;;;5077997;28;20024;-74
2023/05/07 08:32:33;;;;;;;0.10;0.10;;;21.10;96.30;;;;;;5077406;28;20103;-74
2023/05/07 08:34:58;;;;;;;0.10;0.10;;;21.00;96.30;;;;;;5077136;28;20134;-79
2023/05/07 08:37:24;;;;;;;0.20;0.20;;;21.10;96.10;;;;;;5077791;28;20028;-73
2023/05/07 08:39:50;;;;;;;0.20;0.20;;;21.20;96.50;;;;;;5077440;28;20016;-72
2023/05/07 08:42:17;;;;;;;0.10;0.10;;;21.30;95.70;;;;;;5077380;28;20027;-73
2023/05/07 08:44:46;;;;;;;0.10;0.10;;;21.40;95.40;;;;;;5077378;28;20012;-72
2023/05/07 08:47:12;;;;;;;0.10;0.10;;;21.50;95.20;;;;;;5077396;28;20101;-73
2023/05/07 08:49:38;;;;;;;0.13;0.13;;;21.70;95.10;;;;;;5077871;28;20074;-73
2023/05/07 08:52:04;;;;;;;0.40;0.40;;;19.80;94.40;;;;;;5077851;28;20662;-73
2023/05/07 08:54:31;;;;;;;0.10;0.10;;;22.00;93.90;;;;;;5078282;28;20052;-73
2023/05/07 08:56:57;;;;;;;0.10;0.10;;;22.10;93.80;;;;;;5078750;28;20513;-76
2023/05/07 08:59:23;;;;;;;0.68;0.68;;;22.30;93.40;;;;;;5078265;28;20016;-73
2023/05/07 09:01:48;;;;;;;0.40;0.40;;;22.40;91.90;;;;;;5077327;28;20024;-73
2023/05/07 09:04:14;;;;;;;0.20;0.20;;;22.20;93.50;;;;;;5077004;28;20016;-72
2023/05/07 09:06:41;;;;;;;0.10;0.10;;;22.40;92.70;;;;;;5077687;28;20028;-80
2023/05/07 09:09:08;;;;;;;0.13;0.13;;;22.50;92.30;;;;;;5077474;28;20020;-74
2023/05/07 09:11:33;;;;;;;0.10;0.10;;;22.30;92.80;;;;;;5078537;28;20028;-73
2023/05/07 09:14:01;;;;;;;1.65;0.80;;;22.60;92.10;;;;;;5081966;28;20033;-73
2023/05/07 09:16:28;;;;;;;0.10;0.10;;;22.50;91.50;;;;;;5080964;28;20574;-81
2023/05/07 09:18:55;;;;;;;0.52;0.52;;;22.50;91.50;;;;;;5080624;28;20031;-73
2023/05/07 09:21:22;;;;;;;0.85;0.85;;;22.70;91.60;;;;;;5080424;28;20119;-72
2023/05/07 09:23:52;;;;;;;1.40;1.27;;;22.80;91.10;;;;;;5080942;28;20093;-73
2023/05/07 09:26:18;;;;;;;0.10;0.10;;;22.90;87.00;;;;;;5080762;28;20077;-73
2023/05/07 09:28:44;;;;;;;0.43;0.43;;;23.10;87.10;;;;;;5080371;28;20016;-72
2023/05/07 09:31:11;;;;;;;0.35;0.35;;;23.30;88.70;;;;;;5078993;28;20020;-74
2023/05/07 09:33:38;;;;;;;0.10;0.10;;;23.50;87.30;;;;;;5081333;28;20012;-75
2023/05/07 09:36:05;;;;;;;0.10;0.10;;;23.50;82.80;;;;;;5080722;28;20114;-73
2023/05/07 09:38:35;;;;;;;0.10;0.10;;;23.80;85.00;;;;;;5080316;28;20050;-72
2023/05/07 09:41:03;;;;;;;0.10;0.10;;;24.10;81.30;;;;;;5082196;28;20506;-74
2023/05/07 09:43:35;;;;;;;0.10;0.10;;;24.40;83.30;;;;;;5081392;28;20095;-73
2023/05/07 09:46:07;;;;;;;0.10;0.10;;;24.40;81.40;;;;;;5080062;28;20026;-72
2023/05/07 09:48:38;;;;;;;0.10;0.10;;;24.50;79.80;;;;;;5082017;28;20081;-86
2023/05/07 09:51:11;;;;;;;0.13;0.13;;;24.20;79.90;;;;;;5082189;28;20020;-74
2023/05/07 09:53:39;;;;;;;0.52;0.52;;;24.40;80.30;;;;;;5083928;28;20047;-74
2023/05/07 09:56:05;;;;;;;0.20;0.20;;;24.40;80.20;;;;;;5089791;28;20030;-81
2023/05/07 09:58:33;;;;;;;0.10;0.10;;;24.50;79.00;;;;;;5088963;28;20039;-75
2023/05/07 10:01:00;;;;;;;0.10;0.10;;;24.70;77.10;;;;;;5090050;28;20040;-80
2023/05/07 10:03:28;;;;;;;2.92;1.35;;;24.90;76.80;;;;;;5088492;28;20027;-77
2023/05/07 10:05:54;;;;;;;1.17;0.65;;;24.80;75.80;;;;;;5081830;28;20554;-74
2023/05/07 10:08:21;;;;;;;0.10;0.10;;;;;;;;;;5080878;28;20091;-72
2023/05/07 10:10:47;;;;;;;0.30;0.30;;;24.70;74.70;;;;;;5080271;28;20024;-72
2023/05/07 10:13:13;;;;;;;0.40;0.40;;;24.80;63.50;;;;;;5081027;28;20020;-72
2023/05/07 10:15:39;;;;;;;0.40;0.40;;;24.90;64.70;;;;;;5080403;28;20263;-73
2023/05/07 10:18:06;;;;;;;0.10;0.10;;;25.20;68.70;;;;;;5080335;28;20180;-73
2023/05/07 10:20:34;;;;;;;0.30;0.30;;;25.30;72.20;;;;;;5080549;28;20083;-76
2023/05/07 10:23:04;;;;;;;0.17;0.17;;;25.20;70.50;;;;;;5080301;28;20657;-73
2023/05/07 10:25:32;;;;;;;0.20;0.20;;;25.40;69.80;;;;;;5080470;28;20033;-74
2023/05/07 10:28:08;;;;;;;0.10;0.10;;;25.40;69.70;;;;;;5080037;28;20024;-73
2023/05/07 10:31:07;;;;;;;0.13;0.13;;;25.50;69.90;;;;;;5080862;28;20024;-72
2023/05/07 10:33:34;;;;;;;0.43;0.43;;;23.90;65.90;;;;;;5079792;28;20738;-74
2023/05/07 10:36:04;;;;;;;0.10;0.10;;;25.60;64.10;;;;;;5080048;28;20646;-73
2023/05/07 10:38:30;;;;;;;0.00;0.00;;;25.60;59.90;;;;;;5079450;28;20051;-75
2023/05/07 10:40:58;;;;;;;0.10;0.10;;;25.70;56.20;;;;;;5078728;28;20338;-73
2023/05/07 10:43:24;;;;;;;0.10;0.10;;;25.90;55.00;;;;;;5079679;28;20024;-73
2023/05/07 10:46:14;;;;;;;4.38;0.43;;;25.80;56.10;;;;;;5079191;28;20050;-73
2023/05/07 10:49:02;;;;;;;0.10;0.10;;;25.80;55.00;;;;;;5079106;28;20020;-74
2023/05/07 10:51:30;;;;;;;0.75;0.40;;;26.10;55.00;;;;;;5079736;28;20008;-74
2023/05/07 10:54:11;;;;;;;0.20;0.20;;;26.60;56.20;;;;;;5079218;28;20044;-73
2023/05/07 10:56:43;;;;;;;0.00;0.00;;;26.70;53.50;;;;;;5077813;28;20053;-74
2023/05/07 10:59:31;;;;;;;0.00;0.00;;;26.60;51.90;;;;;;5077577;28;20016;-73
2023/05/07 11:02:06;;;;;;;0.10;0.10;;;26.70;51.90;;;;;;5078119;28;20097;-74
2023/05/07 11:04:34;;;;;;;0.17;0.17;;;27.00;52.10;;;;;;5081223;28;20694;-74
2023/05/07 11:07:21;;;;;;;0.10;0.10;;;27.20;53.50;;;;;;5080206;28;20015;-75
2023/05/07 11:09:53;;;;;;;0.52;0.52;;;27.00;52.20;;;;;;5079226;28;20025;-74
2023/05/07 11:12:37;;;;;;;0.00;0.00;;;27.00;53.20;;;;;;5079480;28;20027;-73
2023/05/07 11:15:04;;;;;;;0.00;0.00;;;27.10;52.90;;;;;;5079666;28;20089;-75
2023/05/07 11:17:31;;;;;;;0.10;0.10;;;27.20;52.00;;;;;;5079578;28;20016;-77
2023/05/07 11:19:57;;;;;;;0.10;0.10;;;27.30;49.10;;;;;;5078803;28;20048;-73
2023/05/07 11:22:41;;;;;;;0.00;0.00;;;27.40;49.40;;;;;;5078739;28;20053;-73
2023/05/07 11:25:07;;;;;;;0.00;0.00;;;27.50;50.50;;;;;;5077664;28;20031;-74
2023/05/07 11:27:33;;;;;;;0.00;0.00;;;27.50;49.10;;;;;;5077145;28;20028;-73
2023/05/07 11:30:02;;;;;;;0.00;0.00;;;27.40;48.80;;;;;;5080102;28;20079;-73
2023/05/07 11:32:30;;;;;;;0.00;0.00;;;27.70;48.50;;;;;;5078475;28;20067;-84
2023/05/07 11:34:58;;;;;;;0.05;0.05;;;27.80;49.00;;;;;;5079751;28;20108;-81
2023/05/07 11:37:26;;;;;;;0.00;0.00;;;28.20;49.70;;;;;;5079942;28;20052;-84
2023/05/07 11:40:06;;;;;;;0.00;0.00;;;28.40;50.60;;;;;;5080494;28;20023;-79
2023/05/07 11:42:37;;;;;;;0.00;0.00;;;28.70;49.70;;;;;;5078959;28;20024;-85
2023/05/07 11:45:05;;;;;;;0.03;0.03;;;29.20;49.00;;;;;;5080620;28;20281;-82
2023/05/07 11:47:31;;;;;;;1.10;0.73;;;29.20;48.80;;;;;;5080214;28;20031;-78
2023/05/07 11:50:07;;;;;;;0.38;0.38;;;29.40;48.10;;;;;;5080067;28;20669;-80
2023/05/07 11:52:34;;;;;;;0.08;0.08;;;29.30;47.80;;;;;;5080242;28;20024;-84
2023/05/07 11:55:01;;;;;;;0.00;0.00;;;29.50;47.90;;;;;;5080161;28;20719;-85
2023/05/07 11:57:28;;;;;;;0.00;0.00;;;29.40;47.60;;;;;;5079675;28;20016;-73
2023/05/07 11:59:58;;;;;;;0.00;0.00;;;29.60;48.10;;;;;;5079647;28;20088;-82
2023/05/07 12:02:28;;;;;;;0.10;0.10;;;29.60;48.10;;;;;;5080103;28;20020;-81
2023/05/07 12:04:57;;;;;;;0.00;0.00;;;30.10;47.90;;;;;;5078345;28;20061;-73
2023/05/07 12:07:24;;;;;;;0.00;0.00;;;30.80;46.90;;;;;;5078135;28;20156;-73
2023/05/07 12:09:50;;;;;;;0.00;0.00;;;30.80;45.80;;;;;;5077782;28;20104;-73
2023/05/07 12:12:17;;;;;;;0.28;0.20;;;30.30;44.80;;;;;;5078567;28;20020;-78
2023/05/07 12:14:44;;;;;;;0.00;0.00;;;30.10;45.50;;;;;;5078622;28;20027;-84
2023/05/07 12:17:11;;;;;;;5.47;1.45;;;29.90;45.50;;;;;;5078209;28;20027;-75
2023/05/07 12:19:39;;;;;;;0.00;0.00;;;30.00;45.40;;;;;;5076490;28;20685;-74
2023/05/07 12:22:07;;;;;;;0.00;0.00;;;30.20;45.30;;;;;;5077147;28;20097;-81
2023/05/07 12:24:47;;;;;;;0.32;0.10;;;30.40;45.80;;;;;;5077805;28;20020;-73
2023/05/07 12:27:17;;;;;;;0.00;0.00;;;31.00;45.50;;;;;;5077736;28;20024;-72
2023/05/07 12:29:50;;;;;;;0.38;0.22;;;30.30;43.50;;;;;;5079298;28;20016;-82
2023/05/07 12:32:17;;;;;;;0.43;0.10;;;32.40;44.60;;;;;;5077642;28;20023;-81
2023/05/07 12:34:44;;;;;;;0.00;0.00;;;32.60;44.60;;;;;;5079805;28;20091;-72
2023/05/07 12:37:12;;;;;;;0.38;0.38;;;33.20;46.00;;;;;;5077662;28;20612;-73
2023/05/07 12:39:38;;;;;;;0.00;0.00;;;32.50;41.10;;;;;;5079021;28;20027;-76
2023/05/07 12:42:04;;;;;;;0.10;0.10;;;32.60;41.00;;;;;;5078049;28;20111;-78
2023/05/07 12:44:32;;;;;;;0.08;0.08;;;32.80;40.10;;;;;;5077847;28;20682;-81
2023/05/07 12:47:00;;;;;;;0.05;0.05;;;33.00;40.70;;;;;;5079245;28;20520;-73
2023/05/07 12:49:25;;;;;;;0.08;0.08;;;32.50;40.70;;;;;;5081274;28;20012;-79
2023/05/07 12:51:51;;;;;;;1.00;0.68;;;32.20;42.20;;;;;;5082220;28;20077;-81